createdAt,value
2023-11-14T00:02:01.769Z,98545.14
2023-11-14T00:04:07.918Z,98550.5
2023-11-14T00:06:13.402Z,98540.13
2023-11-14T00:08:18.851Z,98538.73
2023-11-14T00:10:24.265Z,98541.89
2023-11-14T00:12:29.838Z,98532.52
2023-11-14T00:14:35.683Z,98537.25
2023-11-14T00:16:41.168Z,98545.89
2023-11-14T00:18:46.770Z,98534.92
2023-11-14T00:20:52.009Z,98537.42
2023-11-14T00:22:57.324Z,98542.16
2023-11-14T00:25:02.674Z,98545.52
2023-11-14T00:27:08.524Z,98547.28
2023-11-14T00:29:13.975Z,98552.69
2023-11-14T00:31:19.426Z,98553.09
2023-11-14T00:33:24.986Z,98553.26
2023-11-14T00:35:30.597Z,98557.18
2023-11-14T00:37:39.075Z,98567.63
2023-11-14T00:39:44.481Z,98569.22
2023-11-14T00:41:49.789Z,98572.28
2023-11-14T00:43:55.372Z,98579.66
2023-11-14T00:46:00.889Z,98567.09
2023-11-14T00:48:06.483Z,98572.09
2023-11-14T00:50:12.018Z,98576.28
2023-11-14T00:52:17.467Z,98575.95
2023-11-14T00:54:22.947Z,98578
2023-11-14T00:56:28.377Z,98583.61
2023-11-14T00:58:33.872Z,98586.94
2023-11-14T01:00:39.384Z,98590.8
2023-11-14T01:02:44.884Z,98598.87
2023-11-14T01:04:50.476Z,98604.82
2023-11-14T01:06:55.991Z,98608.47
2023-11-14T01:09:01.446Z,98612.21
2023-11-14T01:11:07.078Z,98617.14
2023-11-14T01:13:12.653Z,98621.95
2023-11-14T01:15:18.069Z,98618.92
2023-11-14T01:17:26.935Z,98621.7
2023-11-14T01:19:32.531Z,98626.18
2023-11-14T01:21:38.578Z,98625.22
2023-11-14T01:23:43.992Z,98631.34
2023-11-14T01:25:50.473Z,98642.64
2023-11-14T01:27:55.939Z,98649.02
2023-11-14T01:30:01.582Z,98650.19
2023-11-14T01:32:07.693Z,98653.08
2023-11-14T01:34:13.463Z,98655.28
2023-11-14T01:36:18.765Z,98659.64
2023-11-14T01:38:24.070Z,98650.48
2023-11-14T01:40:29.650Z,98653.59
2023-11-14T01:42:34.843Z,98658.27
2023-11-14T01:44:40.216Z,98654.05
2023-11-14T01:46:45.555Z,98655.29
2023-11-14T01:48:51.104Z,98648.47
2023-11-14T01:50:56.480Z,98652.16
2023-11-14T01:53:01.935Z,98659.88
2023-11-14T01:55:09.785Z,98657.48
2023-11-14T01:57:15.162Z,98642.61
2023-11-14T01:59:20.501Z,98635.56
2023-11-14T02:01:26.000Z,98646.64
2023-11-14T02:03:31.605Z,98660.04
2023-11-14T02:05:37.448Z,98668.22
2023-11-14T02:07:43.399Z,98680.36
2023-11-14T02:09:48.840Z,98683.94
2023-11-14T02:11:54.318Z,98694.5
2023-11-14T02:13:59.617Z,98700.76
2023-11-14T02:16:05.061Z,98695.13
2023-11-14T02:18:10.894Z,98693.91
2023-11-14T02:20:16.514Z,98693.34
2023-11-14T02:22:21.995Z,98689.84
2023-11-14T02:24:27.379Z,98685.34
2023-11-14T02:26:32.721Z,98682.73
2023-11-14T02:28:38.124Z,98679.5
2023-11-14T02:30:43.552Z,98680
2023-11-14T02:32:49.026Z,98685.22
2023-11-14T02:34:54.616Z,98695.56
2023-11-14T02:37:00.167Z,98697.98
2023-11-14T02:39:05.730Z,98710.48
2023-11-14T02:41:11.399Z,98715.34
2023-11-14T02:43:17.003Z,98715.8
2023-11-14T02:45:22.330Z,98717.09
2023-11-14T02:47:27.935Z,98715
2023-11-14T02:49:33.506Z,98713.34
2023-11-14T02:51:38.974Z,98718.41
2023-11-14T02:53:44.308Z,98723.86
2023-11-14T02:55:49.632Z,98716.41
2023-11-14T02:57:55.184Z,98724.02
2023-11-14T03:00:00.550Z,98724.25
2023-11-14T03:02:06.004Z,98720.95
2023-11-14T03:04:11.764Z,98717.71
2023-11-14T03:06:17.152Z,98722.41
2023-11-14T03:08:22.308Z,98722.23
2023-11-14T03:10:27.733Z,98726.05
2023-11-14T03:12:33.280Z,98725.42
2023-11-14T03:14:38.720Z,98723.43
2023-11-14T03:16:44.291Z,98723.88
2023-11-14T03:18:49.803Z,98727.73
2023-11-14T03:20:55.246Z,98726.61
2023-11-14T03:23:00.568Z,98724.73
2023-11-14T03:25:06.016Z,98729.52
2023-11-14T03:27:11.599Z,98728.58
2023-11-14T03:29:16.853Z,98733.46
2023-11-14T03:31:22.250Z,98731.7
2023-11-14T03:33:27.898Z,98736.45
2023-11-14T03:35:33.540Z,98740.22
2023-11-14T03:37:38.850Z,98743.77
2023-11-14T03:39:44.509Z,98748.59
2023-11-14T03:41:49.910Z,98753.09
2023-11-14T03:43:55.431Z,98752.8
2023-11-14T03:46:00.802Z,98755.18
2023-11-14T03:48:06.183Z,98758.98
2023-11-14T03:50:11.860Z,98761.92
2023-11-14T03:52:17.624Z,98764.58
2023-11-14T03:54:23.013Z,98765.48
2023-11-14T03:56:28.343Z,98761.38
2023-11-14T03:58:33.754Z,98768.81
2023-11-14T04:00:39.128Z,98766.71
2023-11-14T04:02:45.082Z,98769.84
2023-11-14T04:04:50.609Z,98777.89
2023-11-14T04:06:56.317Z,98780.73
2023-11-14T04:09:01.596Z,98779.25
2023-11-14T04:11:07.085Z,98784.83
2023-11-14T04:13:12.674Z,98788.05
2023-11-14T04:15:18.230Z,98784.58
2023-11-14T04:17:23.814Z,98778.44
2023-11-14T04:19:29.782Z,98786.09
2023-11-14T04:21:35.171Z,98787.84
2023-11-14T04:23:40.604Z,98788.19
2023-11-14T04:25:46.368Z,98780.86
2023-11-14T04:27:51.697Z,98787.56
2023-11-14T04:29:57.066Z,98787.16
2023-11-14T04:32:02.548Z,98785.95
2023-11-14T04:34:08.131Z,98787.94
2023-11-14T04:36:13.397Z,98792.38
2023-11-14T04:38:18.789Z,98796.63
2023-11-14T04:40:24.262Z,98798.6
2023-11-14T04:42:29.742Z,98803.22
2023-11-14T04:44:35.111Z,98811
2023-11-14T04:46:40.546Z,98813.14
2023-11-14T04:48:46.238Z,98812.28
2023-11-14T04:50:51.645Z,98816.93
2023-11-14T04:52:57.006Z,98816.19
2023-11-14T04:55:02.531Z,98820.14
2023-11-14T04:57:07.860Z,98821.4
2023-11-14T04:59:13.358Z,98823.2
2023-11-14T05:01:18.686Z,98824.23
2023-11-14T05:03:24.245Z,98828.3
2023-11-14T05:05:29.740Z,98832.91
2023-11-14T05:07:35.352Z,98833.64
2023-11-14T05:09:40.716Z,98837.73
2023-11-14T05:11:48.714Z,98838.46
2023-11-14T05:13:54.281Z,98849.94
2023-11-14T05:16:08.851Z,98852.59
2023-11-14T05:18:28.440Z,98859.83
2023-11-14T05:20:33.927Z,98859.44
2023-11-14T05:22:39.497Z,98863.66
2023-11-14T05:24:45.034Z,98858.72
2023-11-14T05:26:50.927Z,98857.34
2023-11-14T05:28:56.310Z,98854.48
2023-11-14T05:31:01.780Z,98850.71
2023-11-14T05:33:07.339Z,98850.2
2023-11-14T05:35:12.989Z,98848.23
2023-11-14T05:37:21.035Z,98847.61
2023-11-14T05:39:26.369Z,98846.77
2023-11-14T05:41:31.917Z,98841.19
2023-11-14T05:43:37.240Z,98839.1
2023-11-14T05:45:42.666Z,98841.25
2023-11-14T05:47:48.141Z,98836.73
2023-11-14T05:49:53.738Z,98836.42
2023-11-14T05:51:59.117Z,98842.38
2023-11-14T05:54:04.551Z,98842.66
2023-11-14T05:56:09.760Z,98843.28
2023-11-14T05:58:15.123Z,98845.58
2023-11-14T06:00:20.924Z,98847.06
2023-11-14T06:02:26.367Z,98852.25
2023-11-14T06:04:34.152Z,98858.42
2023-11-14T06:06:39.892Z,98862.83
2023-11-14T06:08:45.306Z,98873.76
2023-11-14T06:10:51.217Z,98867.14
2023-11-14T06:12:56.694Z,98872.81
2023-11-14T06:15:02.248Z,98875.96
2023-11-14T06:17:07.749Z,98880.41
2023-11-14T06:19:13.221Z,98884.02
2023-11-14T06:21:18.819Z,98889.12
2023-11-14T06:23:24.589Z,98885.1
2023-11-14T06:25:29.982Z,98890.41
2023-11-14T06:27:35.392Z,98887.98
2023-11-14T06:29:40.736Z,98890.32
2023-11-14T06:31:47.760Z,98891.17
2023-11-14T06:33:56.141Z,98891.92
2023-11-14T06:36:01.553Z,98894.34
2023-11-14T06:38:07.070Z,98902.56
2023-11-14T06:40:12.450Z,98892.97
2023-11-14T06:42:17.928Z,98893.28
2023-11-14T06:44:23.411Z,98894.94
2023-11-14T06:46:28.874Z,98892.28
2023-11-14T06:48:34.365Z,98898.66
2023-11-14T06:50:47.634Z,98904.26
2023-11-14T06:52:56.040Z,98907.74
2023-11-14T06:55:01.684Z,98904.94
2023-11-14T06:57:07.076Z,98907.61
2023-11-14T06:59:12.483Z,98908.66
2023-11-14T07:01:18.031Z,98911.36
2023-11-14T07:03:24.745Z,98915.53
2023-11-14T07:05:30.401Z,98913.56
2023-11-14T07:07:35.884Z,98914.2
2023-11-14T07:09:41.297Z,98917.1
2023-11-14T07:11:46.679Z,98914.16
2023-11-14T07:13:52.290Z,98907.48
2023-11-14T07:15:57.850Z,98912.88
2023-11-14T07:18:03.534Z,98911.38
2023-11-14T07:20:09.321Z,98909.43
2023-11-14T07:22:14.961Z,98908.09
2023-11-14T07:24:20.618Z,98904.48
2023-11-14T07:26:26.240Z,98905.7
2023-11-14T07:28:31.571Z,98903.76
2023-11-14T07:30:36.954Z,98903.53
2023-11-14T07:32:42.553Z,98903.89
2023-11-14T07:34:48.137Z,98900.94
2023-11-14T07:36:53.969Z,98890.31
2023-11-14T07:38:59.206Z,98889.28
2023-11-14T07:41:04.598Z,98897.16
2023-11-14T07:43:10.031Z,98894.66
2023-11-14T07:45:15.256Z,98886.05
2023-11-14T07:47:23.379Z,98883.32
2023-11-14T07:49:29.209Z,98877.78
2023-11-14T07:51:34.597Z,98886.27
2023-11-14T07:53:39.796Z,98883.36
2023-11-14T07:55:45.234Z,98879.44
2023-11-14T07:57:50.770Z,98876
2023-11-14T07:59:57.300Z,98880.72
2023-11-14T08:02:03.070Z,98886.99
2023-11-14T08:04:09.208Z,98883.41
2023-11-14T08:06:14.847Z,98895.64
2023-11-14T08:08:20.405Z,98897.7
2023-11-14T08:10:25.830Z,98894.63
2023-11-14T08:12:31.388Z,98891.09
2023-11-14T08:14:39.539Z,98894.62
2023-11-14T08:16:44.879Z,98898.52
2023-11-14T08:18:50.354Z,98900.14
2023-11-14T08:20:58.052Z,98900.21
2023-11-14T08:23:03.475Z,98908.34
2023-11-14T08:25:08.891Z,98914.56
2023-11-14T08:27:14.370Z,98908.05
2023-11-14T08:29:19.861Z,98914.17
2023-11-14T08:31:25.392Z,98926.09
2023-11-14T08:33:30.886Z,98932.08
2023-11-14T08:35:36.436Z,98936.39
2023-11-14T08:37:42.022Z,98942.73
2023-11-14T08:39:47.674Z,98936.55
2023-11-14T08:41:53.132Z,98940.52
2023-11-14T08:43:58.679Z,98948.56
2023-11-14T08:46:04.274Z,98956.74
2023-11-14T08:48:09.809Z,98956.66
2023-11-14T08:50:15.431Z,98963.36
2023-11-14T08:52:20.796Z,98954.55
2023-11-14T08:54:26.293Z,98963.23
2023-11-14T08:56:31.729Z,98952.43
2023-11-14T08:58:37.227Z,98961.91
2023-11-14T09:00:42.648Z,98966.2
2023-11-14T09:02:48.050Z,98969.32
2023-11-14T09:04:53.552Z,98971.81
2023-11-14T09:06:59.123Z,98971.31
2023-11-14T09:09:04.424Z,98971.15
2023-11-14T09:11:09.985Z,98977.84
2023-11-14T09:13:15.346Z,98979.59
2023-11-14T09:15:21.089Z,98968.47
2023-11-14T09:17:27.050Z,98971.23
2023-11-14T09:19:32.907Z,98971.3
2023-11-14T09:21:38.277Z,98960.14
2023-11-14T09:23:43.692Z,98945.54
2023-11-14T09:25:50.192Z,98956.66
2023-11-14T09:27:55.831Z,98954.91
2023-11-14T09:30:01.647Z,98951.75
2023-11-14T09:32:07.043Z,98947.68
2023-11-14T09:34:14.005Z,98951.66
2023-11-14T09:36:19.744Z,98948.7
2023-11-14T09:38:25.266Z,98944.77
2023-11-14T09:40:30.688Z,98939.04
2023-11-14T09:42:35.974Z,98953.05
2023-11-14T09:44:41.480Z,98951.45
2023-11-14T09:46:46.925Z,98969.34
2023-11-14T09:48:52.395Z,98973.47
2023-11-14T09:50:57.825Z,98970.77
2023-11-14T09:53:03.685Z,98975.75
2023-11-14T09:55:09.190Z,98973.08
2023-11-14T09:57:14.612Z,98974.16
2023-11-14T09:59:20.017Z,98967.73
2023-11-14T10:01:25.342Z,98958.8
2023-11-14T10:03:31.189Z,98956.25
2023-11-14T10:05:36.955Z,98958.3
2023-11-14T10:07:42.290Z,98963.79
2023-11-14T10:09:47.819Z,98968.39
2023-11-14T10:12:21.543Z,98964
2023-11-14T10:14:31.246Z,98968.88
2023-11-14T10:16:36.611Z,98974.08
2023-11-14T10:18:41.934Z,98964.56
2023-11-14T10:20:50.067Z,98977.72
2023-11-14T10:23:05.017Z,98981.64
2023-11-14T10:25:18.201Z,98974.8
2023-11-14T10:27:23.735Z,98973.98
2023-11-14T10:29:29.230Z,98990.03
2023-11-14T10:31:34.868Z,98974.52
2023-11-14T10:33:40.598Z,98956.39
2023-11-14T10:35:46.810Z,98951.39
2023-11-14T10:37:52.436Z,98938.92
2023-11-14T10:39:57.739Z,98935.38
2023-11-14T10:42:04.198Z,98938.45
2023-11-14T10:44:11.034Z,98947.28
2023-11-14T10:46:16.965Z,98935.95
2023-11-14T10:48:22.339Z,98926.12
2023-11-14T10:50:27.730Z,98937.3
2023-11-14T10:52:33.595Z,98930.89
2023-11-14T10:54:38.869Z,98932.3
2023-11-14T10:56:57.357Z,98922.61
2023-11-14T10:59:09.949Z,98912.67
2023-11-14T11:01:15.443Z,98917.04
2023-11-14T11:03:21.035Z,98914.44
2023-11-14T11:05:33.314Z,98907.33
2023-11-14T11:07:38.802Z,98910.91
2023-11-14T11:09:44.121Z,98902.56
2023-11-14T11:11:49.465Z,98908.69
2023-11-14T11:13:55.118Z,98913.64
2023-11-14T11:16:00.642Z,98911.36
2023-11-14T11:18:06.304Z,98910.11
2023-11-14T11:20:11.759Z,98908.52
2023-11-14T11:22:17.167Z,98913.4
2023-11-14T11:24:40.341Z,98907.84
2023-11-14T11:26:48.582Z,98919
2023-11-14T11:28:53.991Z,98929.2
2023-11-14T11:30:59.523Z,98931.59
2023-11-14T11:33:05.084Z,98936.63
2023-11-14T11:35:14.258Z,98930.23
2023-11-14T11:37:23.406Z,98931.59
2023-11-14T11:39:28.692Z,98935.38
2023-11-14T11:41:34.580Z,98922.24
2023-11-14T11:43:40.870Z,98921.7
2023-11-14T11:45:46.153Z,98921.45
2023-11-14T11:47:51.684Z,98904.34
2023-11-14T11:49:57.178Z,98896.36
2023-11-14T11:52:02.557Z,98909.2
2023-11-14T11:54:08.102Z,98921.02
2023-11-14T11:56:13.416Z,98928.52
2023-11-14T11:58:19.100Z,98932.11
2023-11-14T12:00:24.927Z,98935.29
2023-11-14T12:02:30.503Z,98931.39
2023-11-14T12:04:36.567Z,98933.84
2023-11-14T12:06:42.348Z,98924.36
2023-11-14T12:08:48.157Z,98915.87
2023-11-14T12:10:53.562Z,98914.02
2023-11-14T12:13:00.335Z,98910.9
2023-11-14T12:15:09.328Z,98909.09
2023-11-14T12:17:14.823Z,98913.2
2023-11-14T12:19:20.234Z,98926.27
2023-11-14T12:21:25.756Z,98924.11
2023-11-14T12:23:32.166Z,98934.33
2023-11-14T12:25:38.173Z,98935.5
2023-11-14T12:27:44.632Z,98947.38
2023-11-14T12:29:50.076Z,98941.66
2023-11-14T12:31:56.068Z,98943.61
2023-11-14T12:34:01.682Z,98945.25
2023-11-14T12:36:07.527Z,98949.8
2023-11-14T12:38:13.247Z,98946.91
2023-11-14T12:40:18.719Z,98950.21
2023-11-14T12:42:24.154Z,98956.85
2023-11-14T12:44:29.917Z,98959.34
2023-11-14T12:46:35.373Z,98966.55
2023-11-14T12:48:41.093Z,98964.63
2023-11-14T12:50:46.682Z,98962.42
2023-11-14T12:52:52.234Z,98953.2
2023-11-14T12:54:57.550Z,98950.53
2023-11-14T12:57:03.390Z,98946.79
2023-11-14T12:59:08.762Z,98939.73
2023-11-14T13:01:14.282Z,98932.78
2023-11-14T13:03:19.924Z,98928.37
2023-11-14T13:05:25.411Z,98913.8
2023-11-14T13:07:31.087Z,98915.81
2023-11-14T13:09:36.512Z,98915.08
2023-11-14T13:11:42.082Z,98910.95
2023-11-14T13:13:47.602Z,98908.19
2023-11-14T13:15:52.916Z,98909.97
2023-11-14T13:17:58.406Z,98907.25
2023-11-14T13:20:03.796Z,98905.41
2023-11-14T13:22:09.531Z,98899.45
2023-11-14T13:24:14.924Z,98905.76
2023-11-14T13:26:20.297Z,98895.77
2023-11-14T13:28:25.900Z,98896.2
2023-11-14T13:30:31.304Z,98893.03
2023-11-14T13:32:36.823Z,98897.61
2023-11-14T13:34:42.633Z,98893.27
2023-11-14T13:36:48.019Z,98908.06
2023-11-14T13:38:53.517Z,98884.16
2023-11-14T13:40:58.945Z,98877.25
2023-11-14T13:43:04.393Z,98869.56
2023-11-14T13:45:09.991Z,98873.84
2023-11-14T13:47:15.820Z,98874.36
2023-11-14T13:49:21.249Z,98885.28
2023-11-14T13:51:26.615Z,98877.75
2023-11-14T13:53:33.853Z,98878.95
2023-11-14T13:55:39.289Z,98879.67
2023-11-14T13:57:45.079Z,98876.69
2023-11-14T13:59:50.473Z,98873.56
2023-11-14T14:01:56.099Z,98869.64
2023-11-14T14:04:01.949Z,98871.81
2023-11-14T14:06:07.677Z,98871.52
2023-11-14T14:08:13.177Z,98875.08
2023-11-14T14:10:18.681Z,98868.7
2023-11-14T14:12:24.033Z,98872.92
2023-11-14T14:14:29.413Z,98875.25
2023-11-14T14:16:35.049Z,98872.36
2023-11-14T14:18:40.536Z,98868.3
2023-11-14T14:20:48.867Z,98862.02
2023-11-14T14:22:56.279Z,98862.36
2023-11-14T14:25:02.006Z,98861.88
2023-11-14T14:27:07.700Z,98865.5
2023-11-14T14:29:13.221Z,98862.64
2023-11-14T14:31:18.950Z,98863.31
2023-11-14T14:33:24.813Z,98860.02
2023-11-14T14:35:30.245Z,98858.66
2023-11-14T14:37:35.774Z,98856.09
2023-11-14T14:39:41.108Z,98855.02
2023-11-14T14:41:46.638Z,98856.82
2023-11-14T14:43:51.973Z,98854.75
2023-11-14T14:45:58.048Z,98851.09
2023-11-14T14:48:03.497Z,98851.59
2023-11-14T14:50:08.984Z,98853.95
2023-11-14T14:52:14.574Z,98854.34
2023-11-14T14:54:19.913Z,98851.78
2023-11-14T14:56:25.294Z,98850.63
2023-11-14T14:58:30.897Z,98855.2
2023-11-14T15:00:36.655Z,98848.13
2023-11-14T15:02:42.032Z,98853.19
2023-11-14T15:04:47.719Z,98857.58
2023-11-14T15:06:53.199Z,98863.13
2023-11-14T15:08:58.422Z,98859.92
2023-11-14T15:11:03.799Z,98853.64
2023-11-14T15:13:09.479Z,98855.06
2023-11-14T15:15:14.923Z,98856.41
2023-11-14T15:17:20.238Z,98860.89
2023-11-14T15:19:25.751Z,98858.51
2023-11-14T15:21:31.126Z,98862.81
2023-11-14T15:23:36.470Z,98867.94
2023-11-14T15:25:42.052Z,98869.84
2023-11-14T15:27:47.923Z,98873.55
2023-11-14T15:29:53.317Z,98881.73
2023-11-14T15:31:58.767Z,98887.84
2023-11-14T15:34:04.288Z,98888.95
2023-11-14T15:36:09.687Z,98899.38
2023-11-14T15:38:15.482Z,98897.7
2023-11-14T15:40:21.148Z,98888.11
2023-11-14T15:42:26.457Z,98888.08
2023-11-14T15:44:32.022Z,98884.58
2023-11-14T15:46:37.756Z,98880.56
2023-11-14T15:48:43.157Z,98878.14
2023-11-14T15:50:48.433Z,98873.37
2023-11-14T15:52:53.979Z,98869.28
2023-11-14T15:55:01.081Z,98865.12
2023-11-14T15:57:06.400Z,98871.51
2023-11-14T15:59:11.910Z,98869.5
2023-11-14T16:01:17.364Z,98872.26
2023-11-14T16:03:22.878Z,98874.78
2023-11-14T16:05:28.513Z,98876.88
2023-11-14T16:07:36.578Z,98871.86
2023-11-14T16:09:42.229Z,98873.77
2023-11-14T16:11:47.764Z,98872.34
2023-11-14T16:13:53.055Z,98874.47
2023-11-14T16:15:58.548Z,98876.17
2023-11-14T16:18:04.104Z,98872.03
2023-11-14T16:20:09.654Z,98869.27
2023-11-14T16:22:15.192Z,98868.06
2023-11-14T16:24:21.334Z,98872.39
2023-11-14T16:26:26.678Z,98870.12
2023-11-14T16:28:34.159Z,98866.7
2023-11-14T16:30:39.673Z,98864.77
2023-11-14T16:32:45.652Z,98868.47
2023-11-14T16:34:51.194Z,98860.18
2023-11-14T16:36:56.593Z,98863.01
2023-11-14T16:39:01.914Z,98857.45
2023-11-14T16:41:07.200Z,98856.05
2023-11-14T16:43:12.654Z,98861.62
2023-11-14T16:45:18.219Z,98861.06
2023-11-14T16:47:23.796Z,98869.66
2023-11-14T16:49:29.383Z,98870.92
2023-11-14T16:51:34.752Z,98870.78
2023-11-14T16:53:41.286Z,98868.63
2023-11-14T16:55:46.721Z,98873.36
2023-11-14T16:57:52.173Z,98868.71
2023-11-14T16:59:57.612Z,98868.66
2023-11-14T17:02:03.186Z,98870.5
2023-11-14T17:04:08.990Z,98872.7
2023-11-14T17:06:14.718Z,98871.05
2023-11-14T17:08:20.289Z,98870.31
2023-11-14T17:10:28.733Z,98864.08
2023-11-14T17:12:35.150Z,98864.56
2023-11-14T17:14:40.618Z,98860.05
2023-11-14T17:16:46.186Z,98868.82
2023-11-14T17:18:51.704Z,98871
2023-11-14T17:20:57.167Z,98862.13
2023-11-14T17:23:02.595Z,98862.59
2023-11-14T17:25:08.108Z,98862.79
2023-11-14T17:27:13.769Z,98857.33
2023-11-14T17:29:19.589Z,98856.99
2023-11-14T17:31:25.371Z,98844.61
2023-11-14T17:33:30.946Z,98844.63
2023-11-14T17:35:36.881Z,98847.31
2023-11-14T17:37:42.714Z,98856.41
2023-11-14T17:39:48.243Z,98857.23
2023-11-14T17:41:54.010Z,98861.34
2023-11-14T17:43:59.294Z,98858.56
2023-11-14T17:46:04.870Z,98860.53
2023-11-14T17:48:10.954Z,98865.16
2023-11-14T17:50:16.578Z,98863.63
2023-11-14T17:52:22.438Z,98862.69
2023-11-14T17:54:28.246Z,98860.43
2023-11-14T17:56:33.963Z,98861.92
2023-11-14T17:58:39.883Z,98860.91
2023-11-14T18:00:45.466Z,98856.95
2023-11-14T18:02:52.984Z,98856.77
2023-11-14T18:05:03.798Z,98857.7
2023-11-14T18:07:10.140Z,98856.66
2023-11-14T18:09:15.655Z,98851.79
2023-11-14T18:11:21.278Z,98848.37
2023-11-14T18:13:26.975Z,98847.3
2023-11-14T18:15:32.676Z,98840.81
2023-11-14T18:17:38.636Z,98838.27
2023-11-14T18:19:44.517Z,98836.16
2023-11-14T18:21:49.857Z,98838.31
2023-11-14T18:23:55.249Z,98837.04
2023-11-14T18:26:00.780Z,98833.17
2023-11-14T18:28:06.287Z,98831.82
2023-11-14T18:30:11.751Z,98838.63
2023-11-14T18:32:17.237Z,98838.67
2023-11-14T18:34:22.934Z,98841.25
2023-11-14T18:36:28.397Z,98840.27
2023-11-14T18:38:34.021Z,98834.52
2023-11-14T18:40:39.623Z,98836.97
2023-11-14T18:42:45.170Z,98829.42
2023-11-14T18:45:07.924Z,98835.11
2023-11-14T18:47:14.046Z,98833.48
2023-11-14T18:49:19.637Z,98828.6
2023-11-14T18:51:24.896Z,98828.96
2023-11-14T18:53:30.348Z,98830.03
2023-11-14T18:55:35.783Z,98827.33
2023-11-14T18:57:41.150Z,98824.41
2023-11-14T18:59:46.544Z,98827.3
2023-11-14T19:01:52.087Z,98825
2023-11-14T19:03:59.939Z,98825.59
2023-11-14T19:06:05.772Z,98829.47
2023-11-14T19:08:11.160Z,98827.21
2023-11-14T19:10:16.674Z,98830.09
2023-11-14T19:12:22.246Z,98831.98
2023-11-14T19:14:28.269Z,98828.63
2023-11-14T19:16:34.463Z,98821.33
2023-11-14T19:18:43.233Z,98824.31
2023-11-14T19:21:42.453Z,98819
2023-11-14T19:23:51.362Z,98814.95
2023-11-14T19:25:57.485Z,98814.66
2023-11-14T19:28:03.025Z,98810
2023-11-14T19:30:10.093Z,98813.91
2023-11-14T19:32:17.993Z,98811.7
2023-11-14T19:34:23.462Z,98811.63
2023-11-14T19:36:28.950Z,98812.91
2023-11-14T19:38:37.408Z,98815.2
2023-11-14T19:40:43.531Z,98815.45
2023-11-14T19:42:48.973Z,98816.86
2023-11-14T19:44:54.510Z,98815.86
2023-11-14T19:47:00.778Z,98815.3
2023-11-14T19:49:06.288Z,98815.13
2023-11-14T19:51:11.608Z,98818.66
2023-11-14T19:53:16.958Z,98819.15
2023-11-14T19:55:22.440Z,98817.47
2023-11-14T19:57:28.690Z,98810.05
2023-11-14T19:59:34.281Z,98813.48
2023-11-14T20:01:39.777Z,98812.63
2023-11-14T20:03:45.474Z,98811.84
2023-11-14T20:05:51.133Z,98809.9
2023-11-14T20:07:56.780Z,98814.72
2023-11-14T20:10:02.686Z,98814.78
2023-11-14T20:12:08.238Z,98814.05
2023-11-14T20:14:13.681Z,98819.66
2023-11-14T20:16:19.324Z,98822.98
2023-11-14T20:18:25.266Z,98819.62
2023-11-14T20:20:31.341Z,98822.16
2023-11-14T20:22:36.830Z,98820.2
2023-11-14T20:24:42.680Z,98827.1
2023-11-14T20:26:48.261Z,98820.55
2023-11-14T20:28:53.779Z,98825.19
2023-11-14T20:30:59.477Z,98828.26
2023-11-14T20:33:05.668Z,98828.37
2023-11-14T20:35:11.351Z,98821.7
2023-11-14T20:37:16.770Z,98822.34
2023-11-14T20:39:22.004Z,98823.02
2023-11-14T20:41:27.473Z,98823.19
2023-11-14T20:43:33.184Z,98810.64
2023-11-14T20:45:38.592Z,98809.22
2023-11-14T20:47:44.222Z,98813.31
2023-11-14T20:49:52.684Z,98811.58
2023-11-14T20:51:57.945Z,98804.61
2023-11-14T20:54:03.449Z,98804.52
2023-11-14T20:56:09.001Z,98797.95
2023-11-14T20:58:14.592Z,98797.84
2023-11-14T21:00:20.196Z,98793.14
2023-11-14T21:02:25.740Z,98797.76
2023-11-14T21:04:31.414Z,98795.55
2023-11-14T21:06:36.876Z,98792.66
2023-11-14T21:08:42.410Z,98791.13
2023-11-14T21:10:47.766Z,98795.92
2023-11-14T21:12:53.374Z,98799.77
2023-11-14T21:14:58.694Z,98792.97
2023-11-14T21:17:04.074Z,98795.22
2023-11-14T21:19:09.430Z,98794.16
2023-11-14T21:21:14.572Z,98791.06
2023-11-14T21:23:19.965Z,98787.98
2023-11-14T21:25:25.225Z,98788.77
2023-11-14T21:27:42.044Z,98785.23
2023-11-14T21:29:48.040Z,98779.86
2023-11-14T21:31:53.673Z,98772.66
2023-11-14T21:33:59.011Z,98769.92
2023-11-14T21:36:04.457Z,98766.85
2023-11-14T21:38:09.799Z,98765
2023-11-14T21:40:15.443Z,98768.17
2023-11-14T21:42:20.896Z,98767.73
2023-11-14T21:44:26.492Z,98767.17
2023-11-14T21:46:32.286Z,98764.88
2023-11-14T21:48:37.619Z,98765.98
2023-11-14T21:50:43.185Z,98762.74
2023-11-14T21:52:48.907Z,98765.78
2023-11-14T21:54:54.336Z,98761.7
2023-11-14T21:56:59.694Z,98759.92
2023-11-14T21:59:05.125Z,98761.13
2023-11-14T22:01:10.473Z,98758.53
2023-11-14T22:03:16.398Z,98762.73
2023-11-14T22:05:21.810Z,98765.2
2023-11-14T22:07:27.024Z,98769.88
2023-11-14T22:09:32.524Z,98768.06
2023-11-14T22:11:37.995Z,98767.2
2023-11-14T22:13:43.313Z,98766.1
2023-11-14T22:15:51.483Z,98760.55
2023-11-14T22:17:56.988Z,98761.71
2023-11-14T22:20:02.694Z,98761.13
2023-11-14T22:22:08.453Z,98759.16
2023-11-14T22:24:13.999Z,98756.75
2023-11-14T22:26:19.317Z,98751.73
2023-11-14T22:28:24.670Z,98752.98
2023-11-14T22:30:30.213Z,98752.86
2023-11-14T22:32:36.218Z,98747.39
2023-11-14T22:34:41.597Z,98746.95
2023-11-14T22:36:47.077Z,98749.22
2023-11-14T22:38:52.506Z,98749.86
2023-11-14T22:40:57.920Z,98746
2023-11-14T22:43:03.465Z,98749.35
2023-11-14T22:45:09.312Z,98754.13
2023-11-14T22:47:14.757Z,98751.51
2023-11-14T22:49:20.201Z,98755.19
2023-11-14T22:51:25.592Z,98756.11
2023-11-14T22:53:30.937Z,98753.44
2023-11-14T22:55:36.427Z,98754.52
2023-11-14T22:57:42.067Z,98751.17
2023-11-14T22:59:47.620Z,98755.13
2023-11-14T23:01:53.197Z,98752.52
2023-11-14T23:03:58.777Z,98750.82
2023-11-14T23:06:04.443Z,98749.91
2023-11-14T23:08:10.432Z,98744.8
2023-11-14T23:10:15.829Z,98750.48
2023-11-14T23:12:21.066Z,98742.08
2023-11-14T23:14:26.522Z,98743.66
2023-11-14T23:16:32.062Z,98742.75
2023-11-14T23:18:37.645Z,98744.75
2023-11-14T23:20:43.061Z,98741.89
2023-11-14T23:22:48.257Z,98737.35
2023-11-14T23:24:53.704Z,98731.48
2023-11-14T23:26:58.984Z,98735.92
2023-11-14T23:29:04.387Z,98733.08
2023-11-14T23:31:09.888Z,98729.79
2023-11-14T23:33:15.467Z,98727.56
2023-11-14T23:35:20.990Z,98725.7
2023-11-14T23:37:26.486Z,98723.59
2023-11-14T23:39:31.783Z,98725.77
2023-11-14T23:41:37.276Z,98718.98
2023-11-14T23:43:42.863Z,98718.53
2023-11-14T23:45:48.188Z,98723.26
2023-11-14T23:47:53.769Z,98722.63
2023-11-14T23:49:59.200Z,98721.56
2023-11-14T23:52:04.631Z,98722.41
2023-11-14T23:54:10.038Z,98725.98
2023-11-14T23:56:15.401Z,98727.19
2023-11-14T23:58:20.814Z,98727.69
